createdAt,value
2023-08-30T00:00:32.618Z,1004.97
2023-08-30T00:01:32.522Z,1004.97
2023-08-30T00:02:32.512Z,1005.00
2023-08-30T00:03:32.690Z,1004.99
2023-08-30T00:04:32.414Z,1004.99
2023-08-30T00:05:32.369Z,1004.99
2023-08-30T00:06:32.347Z,1005.02
2023-08-30T00:07:32.310Z,1004.96
2023-08-30T00:08:32.388Z,1004.95
2023-08-30T00:09:32.314Z,1004.97
2023-08-30T00:10:32.217Z,1004.96
2023-08-30T00:11:32.214Z,1004.97
2023-08-30T00:12:32.154Z,1004.91
2023-08-30T00:13:32.143Z,1004.92
2023-08-30T00:14:32.093Z,1004.87
2023-08-30T00:15:32.125Z,1004.84
2023-08-30T00:16:32.101Z,1004.88
2023-08-30T00:17:32.078Z,1004.84
2023-08-30T00:18:31.988Z,1004.82
2023-08-30T00:19:31.946Z,1004.85
2023-08-30T00:20:31.905Z,1004.86
2023-08-30T00:21:31.940Z,1004.89
2023-08-30T00:22:31.843Z,1004.90
2023-08-30T00:23:31.832Z,1004.90
2023-08-30T00:24:31.785Z,1004.93
2023-08-30T00:25:31.755Z,1004.93
2023-08-30T00:26:31.889Z,1004.95
2023-08-30T00:27:31.690Z,1004.99
2023-08-30T00:28:31.654Z,1004.98
2023-08-30T00:29:31.643Z,1004.99
2023-08-30T00:30:31.611Z,1004.96
2023-08-30T00:31:31.625Z,1004.99
2023-08-30T00:32:31.576Z,1004.99
2023-08-30T00:33:31.507Z,1004.95
2023-08-30T00:34:31.468Z,1004.96
2023-08-30T00:35:31.445Z,1004.95
2023-08-30T00:36:31.467Z,1004.94
2023-08-30T00:37:31.395Z,1004.95
2023-08-30T00:38:31.344Z,1004.94
2023-08-30T00:39:31.384Z,1004.96
2023-08-30T00:40:31.294Z,1004.96
2023-08-30T00:41:31.317Z,1004.95
2023-08-30T00:42:31.233Z,1004.98
2023-08-30T00:43:31.201Z,1005.01
2023-08-30T00:44:31.160Z,1005.02
2023-08-30T00:45:31.134Z,1005.04
2023-08-30T00:46:31.267Z,1005.03
2023-08-30T00:47:31.088Z,1005.05
2023-08-30T00:48:31.044Z,1005.03
2023-08-30T00:49:31.010Z,1005.06
2023-08-30T00:50:30.973Z,1005.03
2023-08-30T00:51:31.001Z,1005.04
2023-08-30T00:52:30.911Z,1005.02
2023-08-30T00:53:30.880Z,1005.00
2023-08-30T00:54:30.867Z,1004.98
2023-08-30T00:55:30.812Z,1004.96
2023-08-30T00:56:30.854Z,1004.97
2023-08-30T00:57:31.200Z,1004.92
2023-08-30T00:58:30.728Z,1004.89
2023-08-30T00:59:30.700Z,1004.88
2023-08-30T01:00:30.720Z,1004.94
2023-08-30T01:01:30.629Z,1004.95
2023-08-30T01:02:30.762Z,1004.97
2023-08-30T01:03:30.664Z,1004.99
2023-08-30T01:04:30.612Z,1005.00
2023-08-30T01:05:30.531Z,1005.05
2023-08-30T01:06:30.483Z,1005.06
2023-08-30T01:07:30.477Z,1005.05
2023-08-30T01:08:30.429Z,1005.04
2023-08-30T01:09:30.447Z,1005.05
2023-08-30T01:10:30.360Z,1005.02
2023-08-30T01:11:30.372Z,1005.01
2023-08-30T01:12:30.288Z,1005.03
2023-08-30T01:13:30.250Z,1005.01
2023-08-30T01:14:30.232Z,1005.03
2023-08-30T01:15:30.253Z,1005.01
2023-08-30T01:16:30.171Z,1005.03
2023-08-30T01:17:30.271Z,1005.00
2023-08-30T01:18:30.230Z,1004.98
2023-08-30T01:19:30.068Z,1004.95
2023-08-30T01:20:30.033Z,1005.00
2023-08-30T01:21:30.001Z,1004.97
2023-08-30T01:22:29.973Z,1004.96
2023-08-30T01:23:29.993Z,1004.96
2023-08-30T01:24:29.916Z,1004.95
2023-08-30T01:25:29.884Z,1004.94
2023-08-30T01:26:29.854Z,1004.97
2023-08-30T01:27:29.824Z,1004.97
2023-08-30T01:28:29.805Z,1004.97
2023-08-30T01:29:29.805Z,1005.00
2023-08-30T01:30:29.779Z,1005.01
2023-08-30T01:31:29.692Z,1005.02
2023-08-30T01:32:29.663Z,1005.01
2023-08-30T01:33:29.626Z,1005.05
2023-08-30T01:34:29.635Z,1005.06
2023-08-30T01:35:29.629Z,1005.04
2023-08-30T01:36:29.562Z,1005.07
2023-08-30T01:37:29.498Z,1005.10
2023-08-30T01:38:29.473Z,1005.06
2023-08-30T01:39:29.438Z,1005.10
2023-08-30T01:40:29.474Z,1005.11
2023-08-30T01:41:29.375Z,1005.17
2023-08-30T01:42:29.379Z,1005.17
2023-08-30T01:43:29.312Z,1005.21
2023-08-30T01:44:29.301Z,1005.23
2023-08-30T01:45:29.305Z,1005.28
2023-08-30T01:46:29.259Z,1005.31
2023-08-30T01:47:29.243Z,1005.30
2023-08-30T01:48:29.163Z,1005.32
2023-08-30T01:49:29.122Z,1005.32
2023-08-30T01:50:29.095Z,1005.37
2023-08-30T01:51:29.110Z,1005.31
2023-08-30T01:52:29.039Z,1005.33
2023-08-30T01:53:29.008Z,1005.34
2023-08-30T01:54:28.982Z,1005.34
2023-08-30T01:55:28.936Z,1005.33
2023-08-30T01:56:28.913Z,1005.32
2023-08-30T01:57:28.935Z,1005.30
2023-08-30T01:58:28.849Z,1005.30
2023-08-30T01:59:28.816Z,1005.28
2023-08-30T02:00:28.789Z,1005.31
2023-08-30T02:01:28.784Z,1005.29
2023-08-30T02:02:28.835Z,1005.29
2023-08-30T02:03:28.746Z,1005.28
2023-08-30T02:04:28.681Z,1005.27
2023-08-30T02:05:28.627Z,1005.23
2023-08-30T02:06:28.601Z,1005.24
2023-08-30T02:07:28.570Z,1005.19
2023-08-30T02:08:28.540Z,1005.20
2023-08-30T02:09:28.560Z,1005.14
2023-08-30T02:10:28.473Z,1005.11
2023-08-30T02:11:28.458Z,1005.11
2023-08-30T02:12:28.413Z,1005.10
2023-08-30T02:13:28.394Z,1005.08
2023-08-30T02:14:28.348Z,1005.12
2023-08-30T02:15:28.373Z,1005.15
2023-08-30T02:16:28.408Z,1005.17
2023-08-30T02:17:28.258Z,1005.17
2023-08-30T02:18:28.250Z,1005.18
2023-08-30T02:19:28.188Z,1005.17
2023-08-30T02:20:28.166Z,1005.14
2023-08-30T02:21:28.208Z,1005.17
2023-08-30T02:22:28.101Z,1005.16
2023-08-30T02:23:28.065Z,1005.12
2023-08-30T02:24:28.037Z,1005.15
2023-08-30T02:25:28.005Z,1005.10
2023-08-30T02:26:27.980Z,1005.13
2023-08-30T02:27:28.000Z,1005.11
2023-08-30T02:28:27.915Z,1005.12
2023-08-30T02:29:27.878Z,1005.13
2023-08-30T02:30:27.861Z,1005.11
2023-08-30T02:31:27.885Z,1005.11
2023-08-30T02:32:27.896Z,1005.12
2023-08-30T02:33:27.753Z,1005.12
2023-08-30T02:34:27.742Z,1005.08
2023-08-30T02:35:27.761Z,1005.12
2023-08-30T02:36:27.670Z,1005.11
2023-08-30T02:37:27.631Z,1005.09
2023-08-30T02:38:27.676Z,1005.10
2023-08-30T02:39:27.579Z,1005.11
2023-08-30T02:40:27.542Z,1005.04
2023-08-30T02:41:31.054Z,1004.99
2023-08-30T02:42:27.487Z,1004.98
2023-08-30T02:43:27.451Z,1004.92
2023-08-30T02:44:27.493Z,1004.89
2023-08-30T02:45:28.177Z,1004.87
2023-08-30T02:46:27.359Z,1004.83
2023-08-30T02:47:27.368Z,1004.81
2023-08-30T02:48:27.298Z,1004.78
2023-08-30T02:49:27.314Z,1004.77
2023-08-30T02:50:27.239Z,1004.75
2023-08-30T02:51:27.296Z,1004.73
2023-08-30T02:52:27.171Z,1004.75
2023-08-30T02:53:27.137Z,1004.73
2023-08-30T02:54:27.161Z,1004.72
2023-08-30T02:55:27.084Z,1004.75
2023-08-30T02:56:27.065Z,1004.74
2023-08-30T02:57:27.050Z,1004.71
2023-08-30T02:58:26.993Z,1004.71
2023-08-30T02:59:27.285Z,1004.71
2023-08-30T03:00:26.923Z,1004.68
2023-08-30T03:01:26.917Z,1004.69
2023-08-30T03:02:26.944Z,1004.60
2023-08-30T03:03:26.937Z,1004.62
2023-08-30T03:04:26.797Z,1004.60
2023-08-30T03:05:26.820Z,1004.62
2023-08-30T03:06:26.844Z,1004.61
2023-08-30T03:07:26.705Z,1004.59
2023-08-30T03:08:26.687Z,1004.57
2023-08-30T03:09:26.651Z,1004.60
2023-08-30T03:10:26.615Z,1004.60
2023-08-30T03:11:26.630Z,1004.58
2023-08-30T03:12:26.554Z,1004.58
2023-08-30T03:13:26.527Z,1004.59
2023-08-30T03:14:26.504Z,1004.58
2023-08-30T03:15:26.519Z,1004.61
2023-08-30T03:16:26.431Z,1004.59
2023-08-30T03:17:26.491Z,1004.61
2023-08-30T03:18:26.367Z,1004.59
2023-08-30T03:19:26.326Z,1004.64
2023-08-30T03:20:26.322Z,1004.65
2023-08-30T03:21:26.271Z,1004.68
2023-08-30T03:22:26.290Z,1004.67
2023-08-30T03:23:26.214Z,1004.70
2023-08-30T03:24:26.180Z,1004.70
2023-08-30T03:25:26.166Z,1004.68
2023-08-30T03:26:26.120Z,1004.73
2023-08-30T03:27:26.083Z,1004.72
2023-08-30T03:28:26.125Z,1004.76
2023-08-30T03:29:26.034Z,1004.72
2023-08-30T03:30:25.994Z,1004.73
2023-08-30T03:31:26.003Z,1004.78
2023-08-30T03:32:25.922Z,1004.83
2023-08-30T03:33:25.904Z,1004.84
2023-08-30T03:34:25.924Z,1004.88
2023-08-30T03:35:25.844Z,1004.87
2023-08-30T03:36:25.800Z,1004.87
2023-08-30T03:37:25.777Z,1004.86
2023-08-30T03:38:25.739Z,1004.78
2023-08-30T03:39:25.775Z,1004.79
2023-08-30T03:40:25.686Z,1004.74
2023-08-30T03:41:25.646Z,1004.73
2023-08-30T03:42:25.629Z,1004.76
2023-08-30T03:43:25.592Z,1004.74
2023-08-30T03:44:25.556Z,1004.76
2023-08-30T03:45:25.601Z,1004.78
2023-08-30T03:46:25.541Z,1004.74
2023-08-30T03:47:25.510Z,1004.78
2023-08-30T03:48:25.432Z,1004.82
2023-08-30T03:49:25.396Z,1004.78
2023-08-30T03:50:25.371Z,1004.83
2023-08-30T03:51:25.610Z,1004.79
2023-08-30T03:52:34.746Z,1004.72
2023-08-30T03:53:25.282Z,1004.76
2023-08-30T03:54:25.326Z,1004.75
2023-08-30T03:55:25.225Z,1004.77
2023-08-30T03:56:26.612Z,1004.74
2023-08-30T03:57:25.204Z,1004.73
2023-08-30T03:58:25.147Z,1004.77
2023-08-30T03:59:27.899Z,1004.76
2023-08-30T04:00:25.073Z,1004.79
2023-08-30T04:01:25.056Z,1004.74
2023-08-30T04:02:25.104Z,1004.75
2023-08-30T04:03:25.112Z,1004.73
2023-08-30T04:04:24.938Z,1004.79
2023-08-30T04:05:26.375Z,1004.79
2023-08-30T04:06:24.911Z,1004.73
2023-08-30T04:07:24.832Z,1004.80
2023-08-30T04:08:24.803Z,1004.75
2023-08-30T04:09:24.812Z,1004.76
2023-08-30T04:10:24.753Z,1004.79
2023-08-30T04:14:29.446Z,1004.66
2023-08-30T04:15:28.810Z,1004.65
2023-08-30T04:16:28.860Z,1004.65
2023-08-30T04:17:28.747Z,1004.59
2023-08-30T04:18:28.740Z,1004.60
2023-08-30T04:19:28.674Z,1004.59
2023-08-30T04:20:28.654Z,1004.63
2023-08-30T04:24:32.736Z,1004.55
2023-08-30T04:25:32.678Z,1004.57
2023-08-30T04:26:32.668Z,1004.57
2023-08-30T04:29:04.689Z,1004.65
2023-08-30T04:30:04.650Z,1004.67
2023-08-30T04:31:04.645Z,1004.75
2023-08-30T04:33:36.688Z,1004.75
2023-08-30T04:34:36.663Z,1004.80
2023-08-30T04:35:36.608Z,1004.79
2023-08-30T04:36:36.556Z,1004.76
2023-08-30T04:37:36.528Z,1004.74
2023-08-30T04:38:45.295Z,1004.77
2023-08-30T04:39:36.456Z,1004.77
2023-08-30T04:40:36.444Z,1004.79
2023-08-30T04:41:36.390Z,1004.81
2023-08-30T04:42:36.364Z,1004.84
2023-08-30T04:43:36.345Z,1004.85
2023-08-30T04:46:08.432Z,1004.90
2023-08-30T04:47:08.323Z,1004.88
2023-08-30T04:48:08.751Z,1004.88
2023-08-30T04:49:08.262Z,1004.91
2023-08-30T04:50:08.237Z,1004.91
2023-08-30T04:54:12.331Z,1004.93
2023-08-30T04:55:12.341Z,1004.94
2023-08-30T04:56:12.265Z,1004.93
2023-08-30T04:57:12.230Z,1004.95
2023-08-30T04:58:12.539Z,1004.94
2023-08-30T04:59:12.179Z,1004.95
2023-08-30T05:00:12.140Z,1004.98
2023-08-30T05:01:12.160Z,1004.99
2023-08-30T05:02:12.103Z,1005.03
2023-08-30T05:03:12.545Z,1004.99
2023-08-30T05:04:12.021Z,1005.02
2023-08-30T05:05:11.987Z,1005.02
2023-08-30T05:06:12.186Z,1005.03
2023-08-30T05:07:11.925Z,1005.03
2023-08-30T05:08:12.039Z,1005.01
2023-08-30T05:09:11.932Z,1005.02
2023-08-30T05:10:11.845Z,1005.01
2023-08-30T05:11:11.799Z,1005.04
2023-08-30T05:12:11.765Z,1005.01
2023-08-30T05:13:11.743Z,1004.97
2023-08-30T05:14:11.737Z,1005.00
2023-08-30T05:15:11.739Z,1005.01
2023-08-30T05:16:11.694Z,1005.03
2023-08-30T05:17:11.624Z,1005.04
2023-08-30T05:18:11.909Z,1005.08
2023-08-30T05:19:11.561Z,1005.04
2023-08-30T05:20:11.527Z,1005.06
2023-08-30T05:21:11.542Z,1005.05
2023-08-30T05:22:11.477Z,1005.02
2023-08-30T05:23:12.546Z,1004.99
2023-08-30T05:24:11.962Z,1005.02
2023-08-30T05:25:11.959Z,1005.05
2023-08-30T05:26:13.000Z,1005.09
2023-08-30T05:27:11.969Z,1005.08
2023-08-30T05:28:11.476Z,1005.10
2023-08-30T05:29:11.325Z,1005.10
2023-08-30T05:30:11.223Z,1005.10
2023-08-30T05:31:11.234Z,1005.11
2023-08-30T05:32:11.154Z,1005.09
2023-08-30T05:33:11.134Z,1005.08
2023-08-30T05:34:11.113Z,1005.06
2023-08-30T05:35:11.168Z,1005.05
2023-08-30T05:36:11.045Z,1005.04
2023-08-30T05:37:11.033Z,1005.06
2023-08-30T05:38:11.222Z,1005.03
2023-08-30T05:39:10.948Z,1005.02
2023-08-30T05:40:10.922Z,1005.03
2023-08-30T05:41:10.957Z,1005.04
2023-08-30T05:42:10.861Z,1005.04
2023-08-30T05:43:10.925Z,1005.06
2023-08-30T05:44:10.821Z,1005.04
2023-08-30T05:45:10.768Z,1004.99
2023-08-30T05:46:10.762Z,1005.04
2023-08-30T05:47:10.763Z,1005.05
2023-08-30T05:48:10.928Z,1005.02
2023-08-30T05:49:10.642Z,1005.03
2023-08-30T05:50:10.609Z,1005.02
2023-08-30T05:51:10.611Z,1005.04
2023-08-30T05:52:10.628Z,1005.04
2023-08-30T05:53:10.535Z,1005.03
2023-08-30T05:54:10.496Z,1005.01
2023-08-30T05:55:10.562Z,1005.01
2023-08-30T05:56:10.443Z,1005.04
2023-08-30T05:57:10.517Z,1005.03
2023-08-30T05:58:10.791Z,1004.98
2023-08-30T05:59:10.347Z,1005.00
2023-08-30T06:00:10.332Z,1004.98
2023-08-30T06:01:10.338Z,1004.98
2023-08-30T06:02:10.869Z,1004.97
2023-08-30T06:03:10.324Z,1004.94
2023-08-30T06:04:10.231Z,1004.94
2023-08-30T06:05:10.175Z,1004.90
2023-08-30T06:06:10.146Z,1004.92
2023-08-30T06:07:10.138Z,1004.89
2023-08-30T06:08:10.465Z,1004.90
2023-08-30T06:09:10.062Z,1004.90
2023-08-30T06:10:10.035Z,1004.88
2023-08-30T06:11:09.997Z,1004.88
2023-08-30T06:12:09.979Z,1004.85
2023-08-30T06:13:09.933Z,1004.81
2023-08-30T06:14:09.978Z,1004.82
2023-08-30T06:15:09.874Z,1004.86
2023-08-30T06:16:09.936Z,1004.85
2023-08-30T06:17:09.823Z,1004.82
2023-08-30T06:18:10.003Z,1004.81
2023-08-30T06:19:09.836Z,1004.83
2023-08-30T06:20:09.733Z,1004.82
2023-08-30T06:21:09.694Z,1004.86
2023-08-30T06:22:09.667Z,1004.90
2023-08-30T06:23:09.666Z,1004.88
2023-08-30T06:24:09.696Z,1004.86
2023-08-30T06:25:09.597Z,1004.92
2023-08-30T06:26:09.545Z,1004.90
2023-08-30T06:27:09.545Z,1004.85
2023-08-30T06:28:09.850Z,1004.88
2023-08-30T06:29:09.483Z,1004.88
2023-08-30T06:30:09.520Z,1004.86
2023-08-30T06:31:09.401Z,1004.84
2023-08-30T06:32:09.374Z,1004.80
2023-08-30T06:33:09.413Z,1004.82
2023-08-30T06:34:09.314Z,1004.81
2023-08-30T06:35:09.315Z,1004.76
2023-08-30T06:36:09.322Z,1004.76
2023-08-30T06:37:09.228Z,1004.76
2023-08-30T06:38:09.427Z,1004.75
2023-08-30T06:39:09.173Z,1004.73
2023-08-30T06:40:09.164Z,1004.75
2023-08-30T06:41:09.185Z,1004.74
2023-08-30T06:42:09.082Z,1004.70
2023-08-30T06:43:09.057Z,1004.74
2023-08-30T06:44:09.034Z,1004.74
2023-08-30T06:45:09.029Z,1004.74
2023-08-30T06:46:08.988Z,1004.73
2023-08-30T06:47:09.064Z,1004.69
2023-08-30T06:48:09.395Z,1004.73
2023-08-30T06:49:08.889Z,1004.71
2023-08-30T06:50:08.853Z,1004.72
2023-08-30T06:51:08.871Z,1004.71
2023-08-30T06:52:08.893Z,1004.66
2023-08-30T06:53:08.772Z,1004.67
2023-08-30T06:54:08.735Z,1004.70
2023-08-30T06:55:08.716Z,1004.69
2023-08-30T06:56:08.682Z,1004.74
2023-08-30T06:57:08.653Z,1004.71
2023-08-30T06:58:08.886Z,1004.69
2023-08-30T06:59:08.621Z,1004.67
2023-08-30T07:00:08.655Z,1004.68
2023-08-30T07:01:08.557Z,1004.68
2023-08-30T07:02:08.544Z,1004.68
2023-08-30T07:03:08.670Z,1004.65
2023-08-30T07:04:08.523Z,1004.62
2023-08-30T07:05:08.446Z,1004.59
2023-08-30T07:06:08.412Z,1004.62
2023-08-30T07:07:08.372Z,1004.62
2023-08-30T07:08:08.519Z,1004.56
2023-08-30T07:09:08.381Z,1004.61
2023-08-30T07:10:08.286Z,1004.60
2023-08-30T07:11:17.088Z,1004.64
2023-08-30T07:12:08.229Z,1004.63
2023-08-30T07:13:08.260Z,1004.62
2023-08-30T07:14:08.216Z,1004.66
2023-08-30T07:15:08.141Z,1004.61
2023-08-30T07:16:08.140Z,1004.66
2023-08-30T07:17:08.080Z,1004.66
2023-08-30T07:18:08.127Z,1004.67
2023-08-30T07:19:08.998Z,1004.67
2023-08-30T07:20:08.023Z,1004.65
2023-08-30T07:21:07.968Z,1004.63
2023-08-30T07:22:07.957Z,1004.62
2023-08-30T07:23:10.765Z,1004.62
2023-08-30T07:24:08.000Z,1004.66
2023-08-30T07:25:07.852Z,1004.68
2023-08-30T07:26:07.827Z,1004.66
2023-08-30T07:27:07.808Z,1004.64
2023-08-30T07:28:08.442Z,1004.63
2023-08-30T07:29:07.746Z,1004.62
2023-08-30T07:30:07.785Z,1004.66
2023-08-30T07:31:07.751Z,1004.62
2023-08-30T07:32:07.677Z,1004.65
2023-08-30T07:33:08.418Z,1004.63
2023-08-30T07:34:07.612Z,1004.64
2023-08-30T07:35:07.570Z,1004.60
2023-08-30T07:36:07.770Z,1004.61
2023-08-30T07:37:07.531Z,1004.63
2023-08-30T07:38:07.782Z,1004.65
2023-08-30T07:39:07.505Z,1004.62
2023-08-30T07:40:07.445Z,1004.65
2023-08-30T07:41:07.896Z,1004.62
2023-08-30T07:42:07.437Z,1004.68
2023-08-30T07:43:07.787Z,1004.66
2023-08-30T07:44:07.410Z,1004.66
2023-08-30T07:45:07.315Z,1004.65
2023-08-30T07:46:07.326Z,1004.66
2023-08-30T07:47:07.249Z,1004.63
2023-08-30T07:48:07.344Z,1004.67
2023-08-30T07:49:07.196Z,1004.62
2023-08-30T07:50:07.185Z,1004.66
2023-08-30T07:51:07.166Z,1004.68
2023-08-30T07:52:07.130Z,1004.69
2023-08-30T07:53:07.392Z,1004.70
2023-08-30T07:54:07.128Z,1004.70
2023-08-30T07:55:07.072Z,1004.76
2023-08-30T07:56:08.898Z,1004.73
2023-08-30T07:57:06.979Z,1004.70
2023-08-30T07:58:07.240Z,1004.72
2023-08-30T07:59:06.938Z,1004.71
2023-08-30T08:00:06.980Z,1004.72
2023-08-30T08:01:06.933Z,1004.67
2023-08-30T08:02:08.015Z,1004.68
2023-08-30T08:03:07.139Z,1004.68
2023-08-30T08:04:08.079Z,1004.67
2023-08-30T08:05:06.784Z,1004.66
2023-08-30T08:06:06.806Z,1004.64
2023-08-30T08:07:06.734Z,1004.64
2023-08-30T08:08:06.745Z,1004.65
2023-08-30T08:09:06.665Z,1004.66
2023-08-30T08:10:06.633Z,1004.67
2023-08-30T08:11:06.647Z,1004.68
2023-08-30T08:12:06.665Z,1004.67
2023-08-30T08:13:06.638Z,1004.68
2023-08-30T08:14:06.643Z,1004.65
2023-08-30T08:15:06.523Z,1004.69
2023-08-30T08:16:06.506Z,1004.68
2023-08-30T08:17:06.453Z,1004.69
2023-08-30T08:18:06.538Z,1004.68
2023-08-30T08:19:06.397Z,1004.66
2023-08-30T08:20:06.392Z,1004.66
2023-08-30T08:21:06.372Z,1004.60
2023-08-30T08:22:06.332Z,1004.62
2023-08-30T08:23:07.512Z,1004.62
2023-08-30T08:24:06.340Z,1004.63
2023-08-30T08:25:06.258Z,1004.68
2023-08-30T08:26:06.263Z,1004.68
2023-08-30T08:27:06.189Z,1004.70
2023-08-30T08:28:06.291Z,1004.68
2023-08-30T08:29:06.154Z,1004.69
2023-08-30T08:30:06.182Z,1004.68
2023-08-30T08:31:06.999Z,1004.72
2023-08-30T08:32:06.109Z,1004.69
2023-08-30T08:33:06.049Z,1004.70
2023-08-30T08:34:06.015Z,1004.71
2023-08-30T08:35:05.983Z,1004.72
2023-08-30T08:36:06.083Z,1004.75
2023-08-30T08:37:05.934Z,1004.75
2023-08-30T08:38:06.032Z,1004.77
2023-08-30T08:39:05.886Z,1004.77
2023-08-30T08:40:05.896Z,1004.79
2023-08-30T08:41:05.831Z,1004.76
2023-08-30T08:42:05.867Z,1004.77
2023-08-30T08:43:05.781Z,1004.76
2023-08-30T08:44:05.753Z,1004.74
2023-08-30T08:45:06.520Z,1004.71
2023-08-30T08:46:05.714Z,1004.73
2023-08-30T08:47:05.670Z,1004.69
2023-08-30T08:48:05.786Z,1004.73
2023-08-30T08:49:05.624Z,1004.72
2023-08-30T08:50:05.633Z,1004.71
2023-08-30T08:51:05.618Z,1004.70
2023-08-30T08:52:19.613Z,1004.69
2023-08-30T08:53:05.538Z,1004.74
2023-08-30T08:54:05.563Z,1004.72
2023-08-30T08:55:05.469Z,1004.68
2023-08-30T08:56:05.445Z,1004.69
2023-08-30T08:57:05.421Z,1004.71
2023-08-30T08:58:05.422Z,1004.71
2023-08-30T08:59:05.427Z,1004.73
2023-08-30T09:00:05.430Z,1004.69
2023-08-30T09:01:05.343Z,1004.70
2023-08-30T09:02:05.377Z,1004.73
2023-08-30T09:03:05.440Z,1004.70
2023-08-30T09:04:05.286Z,1004.69
2023-08-30T09:05:05.216Z,1004.69
2023-08-30T09:06:05.252Z,1004.66
2023-08-30T09:07:05.189Z,1004.63
2023-08-30T09:08:05.152Z,1004.63
2023-08-30T09:09:05.178Z,1004.65
2023-08-30T09:10:06.030Z,1004.64
2023-08-30T09:11:05.241Z,1004.67
2023-08-30T09:12:05.124Z,1004.65
2023-08-30T09:13:05.102Z,1004.65
2023-08-30T09:14:04.997Z,1004.66
2023-08-30T09:15:04.978Z,1004.70
2023-08-30T09:16:04.949Z,1004.68
2023-08-30T09:17:04.948Z,1004.68
2023-08-30T09:21:11.530Z,1004.68
2023-08-30T09:22:08.701Z,1004.71
2023-08-30T09:23:08.795Z,1004.68
2023-08-30T09:24:08.638Z,1004.68
2023-08-30T09:25:08.582Z,1004.69
2023-08-30T09:26:08.714Z,1004.72
2023-08-30T09:27:08.595Z,1004.70
2023-08-30T09:28:09.306Z,1004.72
2023-08-30T09:29:08.464Z,1004.72
2023-08-30T09:30:08.453Z,1004.70
2023-08-30T09:31:17.647Z,1004.72
2023-08-30T09:32:08.517Z,1004.73
2023-08-30T09:33:08.756Z,1004.71
2023-08-30T09:34:08.364Z,1004.72
2023-08-30T09:35:08.350Z,1004.70
2023-08-30T09:36:08.561Z,1004.67
2023-08-30T09:37:08.278Z,1004.72
2023-08-30T09:38:08.396Z,1004.70
2023-08-30T09:39:08.233Z,1004.70
2023-08-30T09:40:08.286Z,1004.69
2023-08-30T09:41:08.192Z,1004.66
2023-08-30T09:42:08.173Z,1004.68
2023-08-30T09:43:13.737Z,1004.69
2023-08-30T09:44:14.150Z,1004.67
2023-08-30T09:45:08.133Z,1004.70
2023-08-30T09:46:08.104Z,1004.67
2023-08-30T09:47:08.164Z,1004.66
2023-08-30T09:48:08.142Z,1004.66
2023-08-30T09:49:08.085Z,1004.65
2023-08-30T09:50:07.984Z,1004.62
2023-08-30T09:51:07.952Z,1004.64
2023-08-30T09:52:07.991Z,1004.60
2023-08-30T09:53:17.664Z,1004.60
2023-08-30T09:54:12.178Z,1004.55
2023-08-30T09:55:08.052Z,1004.52
2023-08-30T09:56:07.841Z,1004.50
2023-08-30T09:57:07.826Z,1004.51
2023-08-30T09:58:07.938Z,1004.46
2023-08-30T09:59:07.764Z,1004.47
2023-08-30T10:00:07.752Z,1004.50
2023-08-30T10:01:13.700Z,1004.46
2023-08-30T10:02:07.935Z,1004.45
2023-08-30T10:03:25.040Z,1004.40
2023-08-30T10:04:07.673Z,1004.41
2023-08-30T10:05:07.774Z,1004.36
2023-08-30T10:06:07.599Z,1004.33
2023-08-30T10:07:07.629Z,1004.35
2023-08-30T10:08:07.553Z,1004.30
2023-08-30T10:09:07.518Z,1004.35
2023-08-30T10:10:09.639Z,1004.32
2023-08-30T10:11:07.477Z,1004.33
2023-08-30T10:12:07.463Z,1004.31
2023-08-30T10:13:10.863Z,1004.31
2023-08-30T10:14:07.407Z,1004.31
2023-08-30T10:15:07.370Z,1004.27
2023-08-30T10:16:07.424Z,1004.33
2023-08-30T10:17:07.427Z,1004.28
2023-08-30T10:18:07.342Z,1004.25
2023-08-30T10:19:07.349Z,1004.20
2023-08-30T10:20:07.257Z,1004.21
2023-08-30T10:21:07.235Z,1004.20
2023-08-30T10:22:07.330Z,1004.17
2023-08-30T10:23:07.383Z,1004.19
2023-08-30T10:24:17.839Z,1004.19
2023-08-30T10:25:11.909Z,1004.20
2023-08-30T10:26:07.114Z,1004.21
2023-08-30T10:27:07.080Z,1004.21
2023-08-30T10:28:07.061Z,1004.21
2023-08-30T10:29:07.031Z,1004.20
2023-08-30T10:30:07.167Z,1004.25
2023-08-30T10:31:07.050Z,1004.23
2023-08-30T10:32:06.985Z,1004.24
2023-08-30T10:33:07.050Z,1004.23
2023-08-30T10:34:06.910Z,1004.27
2023-08-30T10:35:07.855Z,1004.26
2023-08-30T10:36:06.864Z,1004.24
2023-08-30T10:37:06.924Z,1004.25
2023-08-30T10:38:06.812Z,1004.31
2023-08-30T10:39:06.780Z,1004.28
2023-08-30T10:40:06.766Z,1004.27
2023-08-30T10:41:06.733Z,1004.26
2023-08-30T10:42:06.712Z,1004.32
2023-08-30T10:43:06.736Z,1004.33
2023-08-30T10:44:06.660Z,1004.33
2023-08-30T10:46:06.777Z,1004.35
2023-08-30T10:47:06.660Z,1004.35
2023-08-30T10:48:06.645Z,1004.31
2023-08-30T10:49:06.590Z,1004.35
2023-08-30T10:50:06.505Z,1004.30
2023-08-30T10:51:06.480Z,1004.35
2023-08-30T10:52:06.450Z,1004.34
2023-08-30T10:53:06.576Z,1004.35
2023-08-30T10:54:06.571Z,1004.35
2023-08-30T10:55:06.499Z,1004.36
2023-08-30T10:56:06.357Z,1004.36
2023-08-30T10:57:06.327Z,1004.40
2023-08-30T10:58:06.317Z,1004.42
2023-08-30T10:59:06.283Z,1004.42
2023-08-30T11:00:06.540Z,1004.43
2023-08-30T11:01:06.540Z,1004.43
2023-08-30T11:02:06.241Z,1004.44
2023-08-30T11:03:06.207Z,1004.44
2023-08-30T11:04:15.262Z,1004.44
2023-08-30T11:05:06.422Z,1004.42
2023-08-30T11:06:06.090Z,1004.40
2023-08-30T11:07:06.203Z,1004.42
2023-08-30T11:08:06.046Z,1004.45
2023-08-30T11:09:06.030Z,1004.41
2023-08-30T11:10:06.007Z,1004.42
2023-08-30T11:11:05.984Z,1004.44
2023-08-30T11:12:06.086Z,1004.41
2023-08-30T11:13:06.101Z,1004.41
2023-08-30T11:14:06.128Z,1004.40
2023-08-30T11:15:05.875Z,1004.40
2023-08-30T11:16:05.928Z,1004.39
2023-08-30T11:17:05.922Z,1004.37
2023-08-30T11:18:05.926Z,1004.37
2023-08-30T11:19:05.780Z,1004.35
2023-08-30T11:20:05.754Z,1004.37
2023-08-30T11:21:05.723Z,1004.35
2023-08-30T11:22:05.718Z,1004.36
2023-08-30T11:23:05.682Z,1004.34
2023-08-30T11:24:05.708Z,1004.37
2023-08-30T11:25:05.629Z,1004.33
2023-08-30T11:26:05.629Z,1004.35
2023-08-30T11:27:05.582Z,1004.31
2023-08-30T11:28:05.569Z,1004.30
2023-08-30T11:29:05.548Z,1004.29
2023-08-30T11:30:05.574Z,1004.27
2023-08-30T11:31:05.503Z,1004.29
2023-08-30T11:32:05.471Z,1004.29
2023-08-30T11:33:05.546Z,1004.29
2023-08-30T11:34:05.427Z,1004.31
2023-08-30T11:35:05.399Z,1004.35
2023-08-30T11:36:05.488Z,1004.33
2023-08-30T11:37:05.344Z,1004.31
2023-08-30T11:38:05.379Z,1004.31
2023-08-30T11:39:05.293Z,1004.34
2023-08-30T11:40:05.328Z,1004.31
2023-08-30T11:41:05.330Z,1004.30
2023-08-30T11:42:17.141Z,1004.27
2023-08-30T11:43:05.192Z,1004.26
2023-08-30T11:44:05.203Z,1004.27
2023-08-30T11:45:05.241Z,1004.27
2023-08-30T11:46:05.230Z,1004.27
2023-08-30T11:47:05.110Z,1004.25
2023-08-30T11:48:05.171Z,1004.24
2023-08-30T11:49:05.068Z,1004.25
2023-08-30T11:50:05.071Z,1004.26
2023-08-30T11:51:04.999Z,1004.24
2023-08-30T11:52:05.212Z,1004.25
2023-08-30T11:53:04.977Z,1004.26
2023-08-30T11:54:05.048Z,1004.27
2023-08-30T11:55:04.908Z,1004.26
2023-08-30T11:56:04.900Z,1004.31
2023-08-30T11:57:04.859Z,1004.27
2023-08-30T11:58:04.838Z,1004.28
2023-08-30T11:59:04.818Z,1004.24
2023-08-30T12:00:04.850Z,1004.22
2023-08-30T12:01:04.779Z,1004.22
2023-08-30T12:02:04.751Z,1004.22
2023-08-30T12:03:04.746Z,1004.18
2023-08-30T12:04:04.719Z,1004.19
2023-08-30T12:05:04.664Z,1004.19
2023-08-30T12:06:04.985Z,1004.20
2023-08-30T12:07:04.616Z,1004.17
2023-08-30T12:08:04.593Z,1004.21
2023-08-30T12:09:04.569Z,1004.21
2023-08-30T12:10:04.584Z,1004.16
2023-08-30T12:11:04.552Z,1004.19
2023-08-30T12:12:04.548Z,1004.15
2023-08-30T12:13:04.461Z,1004.14
2023-08-30T12:14:04.458Z,1004.12
2023-08-30T12:15:04.414Z,1004.15
2023-08-30T12:16:04.462Z,1004.14
2023-08-30T12:17:04.370Z,1004.14
2023-08-30T12:18:04.437Z,1004.10
2023-08-30T12:19:04.320Z,1004.08
2023-08-30T12:20:04.301Z,1004.08
2023-08-30T12:21:04.267Z,1004.12
2023-08-30T12:22:04.247Z,1004.10
2023-08-30T12:23:04.223Z,1004.08